createdAt,value
2018-08-06T00:00:19.241Z,22.91
2018-08-06T00:01:19.231Z,22.88
2018-08-06T00:02:19.235Z,22.91
2018-08-06T00:03:19.222Z,22.88
2018-08-06T00:04:19.218Z,22.91
2018-08-06T00:05:19.212Z,22.90
2018-08-06T00:06:19.206Z,22.88
2018-08-06T00:07:19.197Z,22.85
2018-08-06T00:08:19.195Z,22.88
2018-08-06T00:09:19.187Z,22.70
2018-08-06T00:10:19.183Z,22.72
2018-08-06T00:11:19.169Z,22.73
2018-08-06T00:12:19.174Z,22.68
2018-08-06T00:13:19.160Z,22.73
2018-08-06T00:14:19.156Z,22.70
2018-08-06T00:15:19.152Z,22.70
2018-08-06T00:16:19.143Z,22.70
2018-08-06T00:17:19.133Z,22.72
2018-08-06T00:18:19.131Z,22.65
2018-08-06T00:19:19.129Z,22.68
2018-08-06T00:20:19.119Z,22.76
2018-08-06T00:21:19.111Z,22.70
2018-08-06T00:22:19.105Z,22.76
2018-08-06T00:23:19.101Z,22.70
2018-08-06T00:24:19.094Z,22.76
2018-08-06T00:25:19.089Z,22.75
2018-08-06T00:26:19.084Z,22.79
2018-08-06T00:27:19.074Z,22.82
2018-08-06T00:28:19.070Z,22.79
2018-08-06T00:29:19.064Z,22.85
2018-08-06T00:30:19.064Z,22.79
2018-08-06T00:31:19.055Z,22.85
2018-08-06T00:32:19.048Z,22.86
2018-08-06T00:33:19.041Z,22.82
2018-08-06T00:34:19.033Z,22.88
2018-08-06T00:35:19.031Z,22.85
2018-08-06T00:36:19.023Z,22.82
2018-08-06T00:37:19.019Z,22.77
2018-08-06T00:38:19.011Z,22.79
2018-08-06T00:39:19.009Z,22.79
2018-08-06T00:40:19.007Z,22.85
2018-08-06T00:41:18.996Z,22.86
2018-08-06T00:42:18.992Z,22.85
2018-08-06T00:43:18.984Z,22.82
2018-08-06T00:44:18.976Z,22.86
2018-08-06T00:45:19.036Z,22.79
2018-08-06T00:46:18.960Z,22.79
2018-08-06T00:47:18.956Z,22.80
2018-08-06T00:48:18.949Z,22.82
2018-08-06T00:49:18.953Z,22.79
2018-08-06T00:50:18.946Z,22.80
2018-08-06T00:51:18.937Z,22.77
2018-08-06T00:52:18.931Z,22.73
2018-08-06T00:53:18.922Z,22.73
2018-08-06T00:54:18.920Z,22.65
2018-08-06T00:55:18.911Z,22.58
2018-08-06T00:56:18.913Z,22.64
2018-08-06T00:57:18.896Z,22.58
2018-08-06T00:58:18.894Z,22.57
2018-08-06T00:59:18.888Z,22.57
2018-08-06T01:00:18.878Z,22.52
2018-08-06T01:01:18.877Z,22.49
2018-08-06T01:02:18.868Z,22.52
2018-08-06T01:03:18.869Z,22.43
2018-08-06T01:04:18.855Z,22.51
2018-08-06T01:05:18.853Z,22.54
2018-08-06T01:06:18.842Z,22.45
2018-08-06T01:07:18.841Z,22.45
2018-08-06T01:08:18.831Z,22.52
2018-08-06T01:09:18.827Z,22.49
2018-08-06T01:10:18.820Z,22.49
2018-08-06T01:11:18.816Z,22.40
2018-08-06T01:12:18.812Z,22.39
2018-08-06T01:13:18.801Z,22.40
2018-08-06T01:14:18.795Z,22.39
2018-08-06T01:15:18.788Z,22.31
2018-08-06T01:16:18.781Z,22.35
2018-08-06T01:17:18.777Z,22.35
2018-08-06T01:18:18.770Z,22.33
2018-08-06T01:19:18.767Z,22.31
2018-08-06T01:20:18.757Z,22.36
2018-08-06T01:21:18.754Z,22.30
2018-08-06T01:22:18.746Z,22.36
2018-08-06T01:23:18.748Z,22.30
2018-08-06T01:24:18.736Z,22.42
2018-08-06T01:25:18.736Z,22.37
2018-08-06T01:26:18.722Z,22.36
2018-08-06T01:27:18.718Z,22.37
2018-08-06T01:28:18.711Z,22.39
2018-08-06T01:29:18.707Z,22.36
2018-08-06T01:30:18.701Z,22.42
2018-08-06T01:31:18.718Z,22.42
2018-08-06T01:32:18.681Z,22.37
2018-08-06T01:33:18.684Z,22.30
2018-08-06T01:34:18.675Z,22.33
2018-08-06T01:35:18.669Z,22.24
2018-08-06T01:36:18.660Z,22.28
2018-08-06T01:37:18.654Z,22.30
2018-08-06T01:38:18.650Z,22.22
2018-08-06T01:39:18.647Z,22.20
2018-08-06T01:40:18.640Z,22.22
2018-08-06T01:41:18.628Z,22.20
2018-08-06T01:42:18.630Z,22.15
2018-08-06T01:43:18.616Z,22.22
2018-08-06T01:44:18.611Z,22.18
2018-08-06T01:45:18.605Z,22.09
2018-08-06T01:46:18.599Z,22.18
2018-08-06T01:47:18.595Z,22.24
2018-08-06T01:48:18.590Z,22.15
2018-08-06T01:49:18.585Z,22.09
2018-08-06T01:50:18.576Z,22.07
2018-08-06T01:51:18.570Z,22.17
2018-08-06T01:52:18.564Z,22.14
2018-08-06T01:53:18.557Z,22.14
2018-08-06T01:54:18.547Z,22.14
2018-08-06T01:55:18.545Z,22.18
2018-08-06T01:56:18.537Z,22.20
2018-08-06T01:57:18.537Z,22.12
2018-08-06T01:58:18.525Z,22.06
2018-08-06T01:59:18.519Z,22.10
2018-08-06T02:00:18.516Z,22.12
2018-08-06T02:01:18.512Z,22.14
2018-08-06T02:02:18.498Z,22.10
2018-08-06T02:03:18.498Z,21.96
2018-08-06T02:04:18.488Z,22.00
2018-08-06T02:05:18.482Z,22.10
2018-08-06T02:06:18.480Z,21.99
2018-08-06T02:07:18.478Z,21.96
2018-08-06T02:08:18.465Z,22.00
2018-08-06T02:09:18.461Z,22.03
2018-08-06T02:10:18.452Z,21.99
2018-08-06T02:11:18.445Z,21.90
2018-08-06T02:12:18.437Z,22.02
2018-08-06T02:13:18.434Z,21.90
2018-08-06T02:14:18.434Z,21.86
2018-08-06T02:15:18.419Z,21.90
2018-08-06T02:16:18.415Z,21.88
2018-08-06T02:17:18.408Z,21.86
2018-08-06T02:18:18.398Z,21.88
2018-08-06T02:19:18.397Z,21.91
2018-08-06T02:20:18.389Z,21.99
2018-08-06T02:21:18.380Z,21.91
2018-08-06T02:22:18.375Z,21.86
2018-08-06T02:23:18.367Z,21.82
2018-08-06T02:24:18.368Z,21.86
2018-08-06T02:25:18.362Z,21.90
2018-08-06T02:26:18.350Z,21.88
2018-08-06T02:27:18.350Z,21.91
2018-08-06T02:28:18.338Z,21.88
2018-08-06T02:29:18.334Z,21.91
2018-08-06T02:30:18.331Z,21.90
2018-08-06T02:31:18.320Z,21.99
2018-08-06T02:32:18.312Z,21.94
2018-08-06T02:33:18.307Z,21.98
2018-08-06T02:34:18.303Z,21.90
2018-08-06T02:35:18.297Z,21.80
2018-08-06T02:36:18.289Z,21.91
2018-08-06T02:37:18.281Z,21.88
2018-08-06T02:38:18.277Z,21.79
2018-08-06T02:39:18.273Z,22.03
2018-08-06T02:40:18.264Z,21.82
2018-08-06T02:41:18.255Z,21.96
2018-08-06T02:42:18.248Z,21.96
2018-08-06T02:43:18.252Z,21.92
2018-08-06T02:44:18.236Z,21.94
2018-08-06T02:45:18.233Z,21.94
2018-08-06T02:46:18.228Z,21.91
2018-08-06T02:47:18.218Z,21.90
2018-08-06T02:48:18.218Z,21.83
2018-08-06T02:49:18.207Z,21.79
2018-08-06T02:50:18.199Z,21.82
2018-08-06T02:51:18.195Z,21.79
2018-08-06T02:52:18.191Z,21.82
2018-08-06T02:53:18.181Z,21.86
2018-08-06T02:54:18.173Z,21.72
2018-08-06T02:55:18.170Z,21.68
2018-08-06T02:56:18.166Z,21.71
2018-08-06T02:57:18.154Z,21.62
2018-08-06T02:58:18.151Z,21.62
2018-08-06T02:59:18.143Z,21.58
2018-08-06T03:00:18.268Z,21.54
2018-08-06T03:01:18.128Z,21.58
2018-08-06T03:02:18.138Z,21.56
2018-08-06T03:03:18.118Z,21.58
2018-08-06T03:04:18.111Z,21.59
2018-08-06T03:05:18.105Z,21.58
2018-08-06T03:06:18.098Z,21.62
2018-08-06T03:07:18.093Z,21.61
2018-08-06T03:08:18.085Z,21.61
2018-08-06T03:09:18.081Z,21.68
2018-08-06T03:10:18.071Z,21.69
2018-08-06T03:11:18.063Z,21.67
2018-08-06T03:12:18.060Z,21.61
2018-08-06T03:13:18.056Z,21.61
2018-08-06T03:14:18.045Z,21.58
2018-08-06T03:15:18.040Z,21.62
2018-08-06T03:16:18.036Z,21.67
2018-08-06T03:17:18.024Z,21.61
2018-08-06T03:18:18.018Z,21.65
2018-08-06T03:19:18.018Z,21.62
2018-08-06T03:20:18.009Z,21.65
2018-08-06T03:21:18.002Z,21.71
2018-08-06T03:22:17.995Z,21.68
2018-08-06T03:23:17.991Z,21.71
2018-08-06T03:24:17.982Z,21.67
2018-08-06T03:25:17.971Z,21.64
2018-08-06T03:26:17.969Z,21.59
2018-08-06T03:27:17.967Z,21.61
2018-08-06T03:28:17.956Z,21.53
2018-08-06T03:29:17.953Z,21.52
2018-08-06T03:30:17.944Z,21.43
2018-08-06T03:31:17.940Z,21.44
2018-08-06T03:32:17.925Z,21.32
2018-08-06T03:33:17.925Z,21.34
2018-08-06T03:34:17.915Z,21.34
2018-08-06T03:35:17.911Z,21.32
2018-08-06T03:36:17.905Z,21.34
2018-08-06T03:37:17.906Z,21.31
2018-08-06T03:38:17.902Z,21.35
2018-08-06T03:39:17.886Z,21.35
2018-08-06T03:40:17.922Z,21.34
2018-08-06T03:41:17.869Z,21.31
2018-08-06T03:42:17.867Z,21.37
2018-08-06T03:43:17.861Z,21.32
2018-08-06T03:44:17.856Z,21.31
2018-08-06T03:45:17.848Z,21.37
2018-08-06T03:46:17.842Z,21.35
2018-08-06T03:47:17.840Z,21.31
2018-08-06T03:48:17.834Z,21.34
2018-08-06T03:49:17.820Z,21.32
2018-08-06T03:50:17.818Z,21.37
2018-08-06T03:51:17.815Z,21.32
2018-08-06T03:52:17.802Z,21.35
2018-08-06T03:53:17.789Z,21.34
2018-08-06T03:54:17.787Z,21.32
2018-08-06T03:55:17.779Z,21.32
2018-08-06T03:56:17.774Z,21.44
2018-08-06T03:57:17.774Z,21.38
2018-08-06T03:58:17.766Z,21.42
2018-08-06T03:59:17.754Z,21.40
2018-08-06T04:00:17.753Z,21.43
2018-08-06T04:01:17.739Z,21.38
2018-08-06T04:02:17.731Z,21.38
2018-08-06T04:03:17.729Z,21.47
2018-08-06T04:04:17.736Z,21.49
2018-08-06T04:05:17.717Z,21.44
2018-08-06T04:06:17.710Z,21.44
2018-08-06T04:07:17.703Z,21.53
2018-08-06T04:08:17.696Z,21.53
2018-08-06T04:09:17.692Z,21.54
2018-08-06T04:10:17.682Z,21.56
2018-08-06T04:11:17.679Z,21.52
2018-08-06T04:12:17.674Z,21.58
2018-08-06T04:13:17.666Z,21.62
2018-08-06T04:14:17.663Z,21.58
2018-08-06T04:15:17.648Z,21.64
2018-08-06T04:16:17.643Z,21.59
2018-08-06T04:17:17.641Z,21.58
2018-08-06T04:18:17.632Z,21.64
2018-08-06T04:19:17.629Z,21.62
2018-08-06T04:20:17.621Z,21.65
2018-08-06T04:21:17.607Z,21.58
2018-08-06T04:22:17.604Z,21.65
2018-08-06T04:23:17.593Z,21.67
2018-08-06T04:24:17.590Z,21.64
2018-08-06T04:25:17.586Z,21.67
2018-08-06T04:26:17.581Z,21.68
2018-08-06T04:27:17.568Z,21.67
2018-08-06T04:28:17.570Z,21.68
2018-08-06T04:29:17.556Z,21.72
2018-08-06T04:30:17.552Z,21.75
2018-08-06T04:31:17.544Z,21.67
2018-08-06T04:32:17.542Z,21.68
2018-08-06T04:33:25.287Z,21.69
2018-08-06T04:34:17.527Z,21.79
2018-08-06T04:35:17.522Z,21.84
2018-08-06T04:36:17.514Z,21.79
2018-08-06T04:37:17.504Z,21.79
2018-08-06T04:38:17.498Z,21.83
2018-08-06T04:39:17.497Z,21.82
2018-08-06T04:40:17.490Z,21.74
2018-08-06T04:41:17.478Z,21.71
2018-08-06T04:42:17.471Z,21.79
2018-08-06T04:43:17.470Z,21.80
2018-08-06T04:44:17.459Z,21.72
2018-08-06T04:45:17.449Z,21.84
2018-08-06T04:46:17.448Z,21.84
2018-08-06T04:47:17.444Z,21.75
2018-08-06T04:48:17.432Z,21.80
2018-08-06T04:49:17.427Z,21.80
2018-08-06T04:50:17.426Z,21.67
2018-08-06T04:51:17.414Z,21.72
2018-08-06T04:52:17.416Z,21.77
2018-08-06T04:53:17.401Z,21.77
2018-08-06T04:54:17.396Z,21.83
2018-08-06T04:55:17.386Z,21.77
2018-08-06T04:56:17.379Z,21.77
2018-08-06T04:57:17.375Z,21.72
2018-08-06T04:58:17.373Z,21.80
2018-08-06T04:59:17.372Z,21.77
2018-08-06T05:00:17.356Z,21.75
2018-08-06T05:01:17.356Z,21.80
2018-08-06T05:02:17.344Z,21.77
2018-08-06T05:03:17.334Z,21.79
2018-08-06T05:04:17.329Z,21.82
2018-08-06T05:05:17.323Z,21.80
2018-08-06T05:06:17.317Z,21.88
2018-08-06T05:07:17.311Z,21.79
2018-08-06T05:08:17.302Z,21.75
2018-08-06T05:09:17.294Z,21.75
2018-08-06T05:10:17.291Z,21.75
2018-08-06T05:11:17.291Z,21.82
2018-08-06T05:12:17.280Z,21.80
2018-08-06T05:13:17.274Z,21.79
2018-08-06T05:14:17.262Z,21.77
2018-08-06T05:15:17.254Z,21.86
2018-08-06T05:16:17.257Z,21.86
2018-08-06T05:17:17.242Z,21.92
2018-08-06T05:18:17.236Z,21.83
2018-08-06T05:19:17.234Z,21.82
2018-08-06T05:20:17.227Z,21.86
2018-08-06T05:21:17.217Z,21.82
2018-08-06T05:22:17.215Z,21.86
2018-08-06T05:23:17.207Z,21.90
2018-08-06T05:24:17.203Z,21.86
2018-08-06T05:25:17.189Z,21.88
2018-08-06T05:26:17.189Z,21.86
2018-08-06T05:27:17.177Z,21.83
2018-08-06T05:28:17.172Z,21.96
2018-08-06T05:29:17.170Z,21.84
2018-08-06T05:30:17.167Z,21.86
2018-08-06T05:31:17.188Z,21.88
2018-08-06T05:32:17.153Z,21.92
2018-08-06T05:33:17.148Z,21.96
2018-08-06T05:34:17.135Z,21.90
2018-08-06T05:35:17.131Z,21.91
2018-08-06T05:36:17.120Z,21.99
2018-08-06T05:37:17.118Z,21.96
2018-08-06T05:38:17.116Z,22.00
2018-08-06T05:39:17.102Z,21.96
2018-08-06T05:40:17.101Z,21.90
2018-08-06T05:41:17.090Z,21.92
2018-08-06T05:42:17.077Z,21.90
2018-08-06T05:43:17.078Z,21.88
2018-08-06T05:44:17.073Z,21.88
2018-08-06T05:45:17.105Z,21.99
2018-08-06T05:46:17.062Z,21.90
2018-08-06T05:47:17.049Z,21.90
2018-08-06T05:48:17.112Z,21.82
2018-08-06T05:49:17.035Z,21.80
2018-08-06T05:50:17.029Z,21.90
2018-08-06T05:51:17.022Z,21.84
2018-08-06T05:52:17.019Z,21.98
2018-08-06T05:53:17.012Z,21.86
2018-08-06T05:54:17.008Z,21.98
2018-08-06T05:55:17.002Z,21.94
2018-08-06T05:56:16.999Z,21.98
2018-08-06T05:57:16.990Z,21.98
2018-08-06T05:58:17.003Z,22.00
2018-08-06T05:59:16.974Z,21.90
2018-08-06T06:00:16.969Z,21.84
2018-08-06T06:01:16.965Z,21.86
2018-08-06T06:02:16.956Z,21.90
2018-08-06T06:03:16.971Z,21.86
2018-08-06T06:04:16.946Z,21.98
2018-08-06T06:05:16.944Z,21.90
2018-08-06T06:06:16.932Z,22.02
2018-08-06T06:07:16.925Z,21.98
2018-08-06T06:08:16.921Z,22.00
2018-08-06T06:09:16.908Z,22.02
2018-08-06T06:10:16.909Z,22.02
2018-08-06T06:11:16.903Z,22.03
2018-08-06T06:12:16.891Z,21.99
2018-08-06T06:13:16.888Z,21.98
2018-08-06T06:14:16.881Z,22.02
2018-08-06T06:15:16.876Z,22.03
2018-08-06T06:16:16.867Z,22.10
2018-08-06T06:17:16.859Z,21.99
2018-08-06T06:18:16.855Z,21.99
2018-08-06T06:19:16.912Z,21.98
2018-08-06T06:20:16.844Z,22.06
2018-08-06T06:21:16.830Z,22.10
2018-08-06T06:22:16.824Z,22.12
2018-08-06T06:23:16.817Z,22.17
2018-08-06T06:24:16.818Z,22.36
2018-08-06T06:25:16.819Z,22.36
2018-08-06T06:26:16.801Z,22.55
2018-08-06T06:27:16.797Z,22.58
2018-08-06T06:28:16.795Z,22.68
2018-08-06T06:29:16.784Z,22.67
2018-08-06T06:30:16.779Z,22.79
2018-08-06T06:31:16.793Z,22.86
2018-08-06T06:32:16.764Z,22.91
2018-08-06T06:33:16.758Z,22.98
2018-08-06T06:34:16.751Z,23.13
2018-08-06T06:35:16.749Z,23.05
2018-08-06T06:36:16.738Z,23.17
2018-08-06T06:37:16.732Z,23.27
2018-08-06T06:38:16.725Z,23.32
2018-08-06T06:39:16.718Z,23.40
2018-08-06T06:40:16.718Z,23.47
2018-08-06T06:41:16.704Z,23.55
2018-08-06T06:42:16.700Z,23.63
2018-08-06T06:43:16.701Z,23.63
2018-08-06T06:44:16.697Z,23.69
2018-08-06T06:45:16.682Z,23.70
2018-08-06T06:46:16.677Z,23.83
2018-08-06T06:47:16.675Z,23.84
2018-08-06T06:48:16.667Z,23.91
2018-08-06T06:49:16.711Z,23.95
2018-08-06T06:50:16.660Z,23.94
2018-08-06T06:51:16.646Z,23.95
2018-08-06T06:52:16.650Z,23.98
2018-08-06T06:53:16.641Z,24.06
2018-08-06T06:54:16.663Z,24.13
2018-08-06T06:55:16.627Z,24.12
2018-08-06T06:56:16.621Z,24.20
2018-08-06T06:57:16.614Z,24.21
2018-08-06T06:58:16.630Z,24.30
2018-08-06T06:59:16.647Z,24.30
2018-08-06T07:00:16.600Z,24.39
2018-08-06T07:01:16.593Z,24.42
2018-08-06T07:02:16.589Z,24.47
2018-08-06T07:03:16.581Z,24.52
2018-08-06T07:04:16.577Z,24.60
2018-08-06T07:05:16.565Z,24.58
2018-08-06T07:06:16.609Z,24.69
2018-08-06T07:07:16.562Z,24.83
2018-08-06T07:08:16.557Z,24.85
2018-08-06T07:09:16.548Z,24.99
2018-08-06T07:10:16.539Z,24.98
2018-08-06T07:11:16.539Z,25.05
2018-08-06T07:12:16.529Z,25.09
2018-08-06T07:13:16.525Z,25.13
2018-08-06T07:14:16.520Z,25.13
2018-08-06T07:15:16.520Z,25.28
2018-08-06T07:16:16.506Z,25.30
2018-08-06T07:17:16.502Z,25.33
2018-08-06T07:18:16.503Z,25.30
2018-08-06T07:19:16.497Z,25.33
2018-08-06T07:20:16.505Z,25.33
2018-08-06T07:21:16.478Z,25.28
2018-08-06T07:22:16.477Z,25.25
2018-08-06T07:23:16.476Z,25.24
2018-08-06T07:24:16.468Z,25.20
2018-08-06T07:25:16.456Z,25.15
2018-08-06T07:26:16.457Z,25.28
2018-08-06T07:27:16.457Z,25.28
2018-08-06T07:28:16.448Z,25.32
2018-08-06T07:29:16.442Z,25.33
2018-08-06T07:30:16.433Z,25.33
2018-08-06T07:31:16.431Z,25.32
2018-08-06T07:32:16.424Z,25.40
2018-08-06T07:33:16.419Z,25.36
2018-08-06T07:34:16.412Z,25.45
2018-08-06T07:35:16.413Z,25.45
2018-08-06T07:36:16.404Z,25.40
2018-08-06T07:37:16.396Z,25.45
2018-08-06T07:38:16.401Z,25.45
2018-08-06T07:39:16.395Z,25.51
2018-08-06T07:40:16.390Z,25.46
2018-08-06T07:41:16.378Z,25.46
2018-08-06T07:42:16.373Z,25.60
2018-08-06T07:43:16.461Z,25.65
2018-08-06T07:44:16.368Z,25.62
2018-08-06T07:45:16.356Z,25.65
2018-08-06T07:46:16.350Z,25.60
2018-08-06T07:47:16.349Z,25.75
2018-08-06T07:48:16.344Z,25.73
2018-08-06T07:49:16.338Z,25.72
2018-08-06T07:50:16.338Z,25.72
2018-08-06T07:51:16.327Z,25.72
2018-08-06T07:52:16.321Z,25.73
2018-08-06T07:53:16.317Z,25.70
2018-08-06T07:54:16.311Z,25.79
2018-08-06T07:55:16.308Z,25.82
2018-08-06T07:56:16.305Z,25.91
2018-08-06T07:57:16.297Z,25.90
2018-08-06T07:58:16.291Z,25.91
2018-08-06T07:59:16.293Z,25.92
2018-08-06T08:00:16.286Z,26.02
2018-08-06T08:01:16.274Z,26.01
2018-08-06T08:02:16.268Z,26.07
2018-08-06T08:03:16.269Z,26.06
2018-08-06T08:04:16.273Z,26.18
2018-08-06T08:05:16.260Z,26.18
2018-08-06T08:06:16.268Z,26.21
2018-08-06T08:07:16.253Z,26.28
2018-08-06T08:08:16.253Z,26.20
2018-08-06T08:09:16.239Z,26.30
2018-08-06T08:10:16.237Z,26.33
2018-08-06T08:11:16.237Z,26.39
2018-08-06T08:12:16.228Z,26.39
2018-08-06T08:13:16.224Z,26.51
2018-08-06T08:14:16.220Z,26.40
2018-08-06T08:15:16.217Z,26.50
2018-08-06T08:16:16.207Z,26.55
2018-08-06T08:17:16.201Z,26.60
2018-08-06T08:18:16.200Z,26.65
2018-08-06T08:19:16.197Z,26.80
2018-08-06T08:20:16.409Z,26.87
2018-08-06T08:21:16.185Z,26.89
2018-08-06T08:22:16.181Z,26.85
2018-08-06T08:23:16.176Z,26.91
2018-08-06T08:24:16.176Z,26.87
2018-08-06T08:25:16.173Z,26.85
2018-08-06T08:26:16.170Z,26.87
2018-08-06T08:27:16.160Z,26.91
2018-08-06T08:28:16.160Z,26.88
2018-08-06T08:29:16.151Z,26.91
2018-08-06T08:30:16.148Z,26.97
2018-08-06T08:31:16.142Z,26.88
2018-08-06T08:32:16.131Z,27.03
2018-08-06T08:33:16.133Z,26.88
2018-08-06T08:34:16.128Z,26.94
2018-08-06T08:35:16.131Z,27.06
2018-08-06T08:36:16.120Z,27.13
2018-08-06T08:37:16.115Z,27.27
2018-08-06T08:38:16.111Z,27.25
2018-08-06T08:39:16.108Z,27.40
2018-08-06T08:40:16.104Z,27.40
2018-08-06T08:41:16.098Z,27.46
2018-08-06T08:42:16.094Z,27.54
2018-08-06T08:43:16.092Z,27.50
2018-08-06T08:44:16.087Z,27.57
2018-08-06T08:45:16.085Z,27.66
2018-08-06T08:46:16.080Z,27.67
2018-08-06T08:47:16.076Z,27.78
2018-08-06T08:48:16.071Z,27.75
2018-08-06T08:49:16.060Z,27.77
2018-08-06T08:50:16.071Z,27.88
2018-08-06T08:51:16.063Z,27.94
2018-08-06T08:52:16.089Z,28.00
2018-08-06T08:53:16.049Z,27.96
2018-08-06T08:54:16.047Z,28.04
2018-08-06T08:55:16.048Z,28.14
2018-08-06T08:56:16.040Z,28.17
2018-08-06T08:57:16.041Z,28.09
2018-08-06T08:58:16.034Z,28.17
2018-08-06T08:59:16.029Z,28.18
2018-08-06T09:00:16.026Z,28.22
2018-08-06T09:01:16.026Z,28.27
2018-08-06T09:02:16.016Z,28.19
2018-08-06T09:03:16.010Z,28.25
2018-08-06T09:04:16.015Z,28.25
2018-08-06T09:05:16.007Z,28.24
2018-08-06T09:06:16.005Z,28.36
2018-08-06T09:07:16.056Z,28.36
2018-08-06T09:08:15.997Z,28.39
2018-08-06T09:09:15.989Z,28.39
2018-08-06T09:10:15.993Z,28.51
2018-08-06T09:11:15.989Z,28.52
2018-08-06T09:12:15.981Z,28.67
2018-08-06T09:13:15.976Z,28.58
2018-08-06T09:14:15.976Z,28.66
2018-08-06T09:15:15.974Z,28.74
2018-08-06T09:16:15.964Z,28.51
2018-08-06T09:17:15.960Z,28.55
2018-08-06T09:18:15.964Z,28.46
2018-08-06T09:19:15.956Z,28.52
2018-08-06T09:20:15.955Z,28.55
2018-08-06T09:21:15.998Z,28.62
2018-08-06T09:22:15.949Z,28.70
2018-08-06T09:23:15.943Z,28.59
2018-08-06T09:24:15.939Z,28.51
2018-08-06T09:25:15.934Z,28.41
2018-08-06T09:26:15.933Z,28.43
2018-08-06T09:27:15.931Z,28.40
2018-08-06T09:28:15.927Z,28.44
2018-08-06T09:29:15.924Z,28.40
2018-08-06T09:30:15.918Z,28.46
2018-08-06T09:31:15.916Z,28.33
2018-08-06T09:32:15.911Z,28.33
2018-08-06T09:33:15.907Z,28.33
2018-08-06T09:34:15.904Z,28.36
2018-08-06T09:35:15.911Z,28.52
2018-08-06T09:36:15.901Z,28.48
2018-08-06T09:37:15.898Z,28.49
2018-08-06T09:38:15.895Z,28.52
2018-08-06T09:39:15.888Z,28.59
2018-08-06T09:40:15.896Z,28.76
2018-08-06T09:41:15.880Z,28.81
2018-08-06T09:42:15.877Z,28.81
2018-08-06T09:43:15.875Z,28.85
2018-08-06T09:44:15.874Z,28.92
2018-08-06T09:45:15.867Z,28.89
2018-08-06T09:46:15.862Z,28.86
2018-08-06T09:47:15.862Z,28.92
2018-08-06T09:48:15.863Z,28.90
2018-08-06T09:49:15.852Z,28.86
2018-08-06T09:50:15.855Z,28.78
2018-08-06T09:51:15.846Z,28.80
2018-08-06T09:52:15.848Z,28.80
2018-08-06T09:53:15.844Z,28.85
2018-08-06T09:54:15.839Z,28.88
2018-08-06T09:55:15.837Z,28.92
2018-08-06T09:56:15.832Z,28.85
2018-08-06T09:57:15.828Z,29.00
2018-08-06T09:58:15.828Z,29.05
2018-08-06T09:59:15.824Z,29.09
2018-08-06T10:00:15.828Z,29.11
2018-08-06T10:01:15.816Z,29.11
2018-08-06T10:02:15.812Z,29.19
2018-08-06T10:03:15.812Z,29.16
2018-08-06T10:04:15.806Z,29.28
2018-08-06T10:05:15.835Z,29.24
2018-08-06T10:06:15.861Z,29.16
2018-08-06T10:07:15.797Z,29.19
2018-08-06T10:08:15.798Z,29.21
2018-08-06T10:09:15.796Z,29.08
2018-08-06T10:10:15.785Z,29.09
2018-08-06T10:11:15.790Z,29.16
2018-08-06T10:12:15.784Z,29.18
2018-08-06T10:13:15.774Z,29.15
2018-08-06T10:14:15.773Z,29.19
2018-08-06T10:15:15.773Z,29.28
2018-08-06T10:16:15.770Z,29.34
2018-08-06T10:17:15.766Z,29.34
2018-08-06T10:18:15.768Z,29.43
2018-08-06T10:19:15.881Z,29.51
2018-08-06T10:20:15.761Z,29.52
2018-08-06T10:21:15.758Z,29.53
2018-08-06T10:22:15.747Z,29.64
2018-08-06T10:23:15.748Z,29.58
2018-08-06T10:24:15.748Z,29.68
2018-08-06T10:25:15.743Z,29.74
2018-08-06T10:26:15.744Z,29.67
2018-08-06T10:27:15.742Z,29.71
2018-08-06T10:28:15.734Z,29.71
2018-08-06T10:29:15.731Z,29.67
2018-08-06T10:30:15.775Z,29.73
2018-08-06T10:31:15.731Z,29.70
2018-08-06T10:32:15.726Z,29.74
2018-08-06T10:33:15.718Z,29.70
2018-08-06T10:34:15.716Z,29.83
2018-08-06T10:35:15.718Z,30.01
2018-08-06T10:36:15.716Z,30.00
2018-08-06T10:37:15.712Z,30.00
2018-08-06T10:38:15.708Z,29.92
2018-08-06T10:39:15.708Z,29.73
2018-08-06T10:40:15.748Z,29.61
2018-08-06T10:41:15.704Z,29.48
2018-08-06T10:42:15.696Z,29.46
2018-08-06T10:43:15.696Z,29.57
2018-08-06T10:44:15.693Z,29.58
2018-08-06T10:45:15.686Z,29.64
2018-08-06T10:46:15.687Z,29.67
2018-08-06T10:47:15.689Z,29.85
2018-08-06T10:48:15.689Z,29.98
2018-08-06T10:49:15.678Z,30.02
2018-08-06T10:50:15.672Z,30.08
2018-08-06T10:51:15.675Z,30.24
2018-08-06T10:52:15.671Z,30.31
2018-08-06T10:53:15.671Z,30.46
2018-08-06T10:54:15.662Z,30.60
2018-08-06T10:55:15.663Z,30.65
2018-08-06T10:56:15.658Z,30.80
2018-08-06T10:57:15.658Z,30.83
2018-08-06T10:58:15.654Z,30.88
2018-08-06T10:59:15.654Z,30.75
2018-08-06T11:00:15.646Z,30.45
2018-08-06T11:01:15.648Z,30.20
2018-08-06T11:02:15.644Z,30.16
2018-08-06T11:03:15.640Z,30.07
2018-08-06T11:04:15.641Z,29.90
2018-08-06T11:05:15.637Z,29.83
2018-08-06T11:06:15.633Z,29.80
2018-08-06T11:07:15.633Z,29.97
2018-08-06T11:08:15.633Z,29.89
2018-08-06T11:09:15.625Z,29.78
2018-08-06T11:10:15.629Z,29.67
2018-08-06T11:11:15.629Z,29.65
2018-08-06T11:12:15.622Z,29.57
2018-08-06T11:13:15.622Z,29.52
2018-08-06T11:14:15.613Z,29.48
2018-08-06T11:15:15.616Z,29.76
2018-08-06T11:16:15.613Z,29.90
2018-08-06T11:17:15.609Z,29.79
2018-08-06T11:18:15.606Z,29.98
2018-08-06T11:19:15.645Z,30.04
2018-08-06T11:20:15.605Z,30.00
2018-08-06T11:21:15.603Z,29.92
2018-08-06T11:22:15.599Z,30.11
2018-08-06T11:23:15.593Z,30.26
2018-08-06T11:24:15.596Z,30.46
2018-08-06T11:25:15.581Z,30.61
2018-08-06T11:26:15.584Z,30.75
2018-08-06T11:27:15.594Z,30.77
2018-08-06T11:28:15.579Z,30.92
2018-08-06T11:29:15.579Z,30.98
2018-08-06T11:30:15.580Z,31.17
2018-08-06T11:31:15.579Z,31.20
2018-08-06T11:32:15.575Z,31.20
2018-08-06T11:33:15.566Z,31.21
2018-08-06T11:34:15.569Z,31.25
2018-08-06T11:35:15.579Z,31.17
2018-08-06T11:36:15.567Z,31.29
2018-08-06T11:37:15.558Z,31.25
2018-08-06T11:38:15.561Z,31.25
2018-08-06T11:39:15.552Z,31.28
2018-08-06T11:40:15.555Z,31.19
2018-08-06T11:41:15.552Z,31.14
2018-08-06T11:42:15.550Z,31.16
2018-08-06T11:43:15.550Z,30.92
2018-08-06T11:44:15.548Z,30.99
2018-08-06T11:45:15.543Z,30.94
2018-08-06T11:46:15.543Z,30.86
2018-08-06T11:47:15.541Z,30.60
2018-08-06T11:48:15.535Z,30.47
2018-08-06T11:49:15.532Z,30.22
2018-08-06T11:50:15.536Z,30.10
2018-08-06T11:51:15.532Z,29.97
2018-08-06T11:52:15.528Z,29.83
2018-08-06T11:53:15.535Z,29.74
2018-08-06T11:54:15.525Z,29.61
2018-08-06T11:55:15.527Z,29.55
2018-08-06T11:56:15.516Z,29.41
2018-08-06T11:57:15.516Z,29.46
2018-08-06T11:58:15.516Z,29.49
2018-08-06T11:59:15.515Z,29.39
2018-08-06T12:00:15.509Z,29.34
2018-08-06T12:01:15.513Z,29.34
2018-08-06T12:02:15.507Z,29.27
2018-08-06T12:03:15.507Z,29.23
2018-08-06T12:04:15.501Z,29.19
2018-08-06T12:05:15.503Z,29.19
2018-08-06T12:06:15.501Z,29.19
2018-08-06T12:07:15.497Z,29.15
2018-08-06T12:08:15.495Z,29.18
2018-08-06T12:09:15.484Z,29.23
2018-08-06T12:10:15.486Z,29.11
2018-08-06T12:11:15.493Z,29.09
2018-08-06T12:12:15.482Z,29.02
2018-08-06T12:13:15.481Z,29.08
2018-08-06T12:14:15.476Z,29.08
2018-08-06T12:15:15.498Z,29.06
2018-08-06T12:16:15.473Z,29.09
2018-08-06T12:17:15.465Z,29.09
2018-08-06T12:18:15.466Z,29.09
2018-08-06T12:19:15.464Z,29.12
2018-08-06T12:20:15.522Z,29.12
2018-08-06T12:21:15.459Z,29.15
2018-08-06T12:22:15.457Z,29.24
2018-08-06T12:23:15.455Z,29.08
2018-08-06T12:24:15.450Z,29.18
2018-08-06T12:25:15.445Z,29.21
2018-08-06T12:26:15.575Z,29.28
2018-08-06T12:27:15.474Z,29.21
2018-08-06T12:28:15.441Z,29.27
2018-08-06T12:29:15.432Z,29.39
2018-08-06T12:30:15.432Z,29.41
2018-08-06T12:31:15.429Z,29.43
2018-08-06T12:32:15.422Z,29.45
2018-08-06T12:33:15.417Z,29.64
2018-08-06T12:34:15.419Z,29.67
2018-08-06T12:35:15.414Z,29.71
2018-08-06T12:36:15.411Z,29.94
2018-08-06T12:37:15.405Z,29.98
2018-08-06T12:38:15.450Z,30.00
2018-08-06T12:39:15.404Z,30.00
2018-08-06T12:40:15.398Z,29.95
2018-08-06T12:41:15.398Z,29.87
2018-08-06T12:42:15.393Z,29.94
2018-08-06T12:43:15.390Z,29.74
2018-08-06T12:44:15.388Z,29.73
2018-08-06T12:45:15.386Z,29.65
2018-08-06T12:46:15.435Z,29.61
2018-08-06T12:47:15.384Z,29.63
2018-08-06T12:48:15.377Z,29.64
2018-08-06T12:49:15.376Z,29.60
2018-08-06T12:50:15.374Z,29.60
2018-08-06T12:51:15.374Z,29.73
2018-08-06T12:52:15.369Z,29.80